Time;durP1;ratioP1;P1;durP2;ratioP2;P2;SDS_P1;SDS_P2;PMS_P1;PMS_P2;Temp;Humidity;BMP_temperature;BMP_pressure;BME280_temperature;BME280_humidity;BME280_pressure;Samples;Min_cycle;Max_cycle;Signal;HPM_P1;HPM_P2
2022/12/09 00:02:01;;;;;;;;;27.75;26.25;;;;;3.32;78.84;100679.78;5059078;28;11530;-68
2022/12/09 00:04:27;;;;;;;;;28.25;23.50;;;;;3.32;78.88;100684.25;5055865;28;11558;-69
2022/12/09 00:06:54;;;;;;;;;24.75;20.50;;;;;3.29;78.84;100680.09;5062066;28;11685;-66
2022/12/09 00:09:21;;;;;;;;;24.25;24.25;;;;;3.26;78.85;100685.69;5057383;28;11531;-66
2022/12/09 00:11:48;;;;;;;;;21.50;18.00;;;;;3.25;79.25;100689.34;5052605;28;11587;-66
2022/12/09 00:14:14;;;;;;;;;25.00;23.50;;;;;3.23;78.97;100680.69;5044065;28;11582;-66
2022/12/09 00:16:41;;;;;;;;;24.00;19.00;;;;;3.22;79.09;100682.50;5050359;28;11631;-66
2022/12/09 00:19:07;;;;;;;;;42.50;33.75;;;;;3.19;79.02;100692.59;5056273;28;11579;-67
2022/12/09 00:21:34;;;;;;;;;28.50;27.50;;;;;3.17;79.09;100679.47;5058766;28;11569;-67
2022/12/09 00:24:06;;;;;;;;;39.25;29.00;;;;;3.13;78.93;100688.72;5033117;28;11566;-67
2022/12/09 00:26:33;;;;;;;;;32.00;27.75;;;;;3.08;78.64;100683.03;5044320;28;11788;-67
2022/12/09 00:29:00;;;;;;;;;31.25;27.00;;;;;3.03;78.74;100679.13;5055362;28;11584;-67
2022/12/09 00:31:31;;;;;;;;;28.50;26.50;;;;;3.00;78.80;100685.59;5045773;28;11598;-68
2022/12/09 00:34:02;;;;;;;;;23.50;21.75;;;;;2.96;78.97;100676.25;5060607;28;11601;-67
2022/12/09 00:36:29;;;;;;;;;27.25;23.25;;;;;2.93;79.42;100677.38;5059617;28;11528;-67
2022/12/09 00:38:57;;;;;;;;;30.25;22.25;;;;;2.87;78.88;100685.94;5048370;28;12340;-68
2022/12/09 00:41:24;;;;;;;;;26.00;23.00;;;;;2.86;79.09;100694.91;5052180;28;11545;-67
2022/12/09 00:43:51;;;;;;;;;28.50;23.00;;;;;2.86;78.79;100697.56;5050653;28;11734;-67
2022/12/09 00:46:17;;;;;;;;;33.75;28.25;;;;;2.82;78.93;100701.50;5052966;28;11549;-66
2022/12/09 00:48:45;;;;;;;;;26.50;25.50;;;;;2.79;78.68;100695.63;5059882;28;11547;-67
2022/12/09 00:51:19;;;;;;;;;33.75;28.50;;;;;2.75;78.83;100700.41;5054947;28;11558;-67
2022/12/09 00:53:46;;;;;;;;;33.50;21.50;;;;;2.71;78.71;100704.34;5048285;28;11625;-67
2022/12/09 00:56:13;;;;;;;;;31.75;26.00;;;;;2.66;79.05;100703.94;5051474;28;11594;-67
2022/12/09 00:58:40;;;;;;;;;22.50;22.25;;;;;2.63;78.89;100699.78;5059459;28;11573;-67
2022/12/09 01:01:06;;;;;;;;;32.00;24.50;;;;;2.61;79.22;100704.38;5063890;28;11531;-67
2022/12/09 01:03:33;;;;;;;;;32.50;26.25;;;;;2.59;78.85;100706.34;5051939;28;12245;-68
2022/12/09 01:06:00;;;;;;;;;31.50;25.25;;;;;2.56;78.82;100705.81;5046929;28;11587;-67
2022/12/09 01:08:26;;;;;;;;;29.50;25.00;;;;;2.54;79.19;100700.63;5062666;28;11664;-67
2022/12/09 01:10:53;;;;;;;;;27.75;25.00;;;;;2.51;79.06;100706.22;5052194;28;11580;-67
2022/12/09 01:13:20;;;;;;;;;27.00;25.00;;;;;2.46;78.83;100700.53;5057475;28;11550;-68
2022/12/09 01:15:47;;;;;;;;;30.25;27.00;;;;;2.43;78.84;100709.63;5047904;28;11596;-68
2022/12/09 01:18:13;;;;;;;;;28.00;23.25;;;;;2.41;78.89;100713.41;5048196;28;11638;-67
2022/12/09 01:20:40;;;;;;;;;32.00;28.75;;;;;2.38;79.15;100709.22;5051074;28;11555;-67
2022/12/09 01:23:06;;;;;;;;;31.50;26.25;;;;;2.36;79.04;100713.84;5050820;28;11665;-68
2022/12/09 01:25:33;;;;;;;;;29.00;22.50;;;;;2.34;78.79;100705.16;5050300;28;11588;-67
2022/12/09 01:28:00;;;;;;;;;25.50;22.25;;;;;2.31;78.98;100713.44;5059738;28;11612;-66
2022/12/09 01:30:27;;;;;;;;;32.50;28.25;;;;;2.31;78.84;100710.78;5047630;28;11558;-67
2022/12/09 01:32:53;;;;;;;;;38.25;23.00;;;;;2.31;78.83;100712.59;5058318;28;11584;-67
2022/12/09 01:35:20;;;;;;;;;31.00;25.75;;;;;2.31;79.26;100716.09;5050561;28;12295;-65
2022/12/09 01:37:47;;;;;;;;;28.50;25.75;;;;;2.33;79.27;100719.44;5054239;28;11542;-66
2022/12/09 01:40:16;;;;;;;;;33.25;24.50;;;;;2.32;78.88;100722.25;5049897;28;11604;-67
2022/12/09 01:42:43;;;;;;;;;24.00;22.00;;;;;2.31;78.71;100718.75;5048116;28;11596;-65
2022/12/09 01:45:19;;;;;;;;;26.75;22.50;;;;;2.34;78.99;100717.63;5043693;28;11623;-67
2022/12/09 01:47:53;;;;;;;;;31.75;25.25;;;;;2.32;78.87;100717.78;5069787;28;11532;-67
2022/12/09 01:50:20;;;;;;;;;21.75;20.50;;;;;2.33;78.99;100716.78;5051924;28;11558;-66
2022/12/09 01:52:48;;;;;;;;;25.25;20.25;;;;;2.35;78.71;100719.28;5046786;28;11587;-67
2022/12/09 01:55:16;;;;;;;;;24.25;20.25;;;;;2.35;78.87;100719.28;5035682;28;11532;-66
2022/12/09 01:57:44;;;;;;;;;30.25;24.25;;;;;2.31;78.52;100716.09;5046624;28;11578;-67
2022/12/09 02:00:12;;;;;;;;;22.25;20.00;;;;;2.31;78.47;100717.91;5058624;28;11650;-67
2022/12/09 02:02:45;;;;;;;;;22.00;19.50;;;;;2.34;78.66;100712.31;5062171;28;11517;-66
2022/12/09 02:05:15;;;;;;;;;24.75;18.75;;;;;2.35;78.64;100709.53;5038789;28;11700;-67
2022/12/09 02:07:45;;;;;;;;;16.75;14.00;;;;;2.33;78.71;100706.16;5048882;28;11567;-67
2022/12/09 02:10:16;;;;;;;;;29.00;24.00;;;;;2.29;78.37;100710.09;5045718;28;11569;-65
2022/12/09 02:13:04;;;;;;;;;24.25;21.50;;;;;2.25;78.19;100708.69;5057494;28;12964;-66
2022/12/09 02:15:40;;;;;;;;;31.25;25.75;;;;;2.20;78.17;100710.94;5067083;28;11672;-66
2022/12/09 02:18:37;;;;;;;;;31.00;27.75;;;;;2.17;78.26;100705.91;5065248;28;11556;-65
2022/12/09 02:21:14;;;;;;;;;30.25;20.50;;;;;2.14;78.64;100707.03;5039017;28;11704;-68
2022/12/09 02:23:56;;;;;;;;;29.25;26.75;;;;;2.09;78.32;100705.78;5046523;28;11569;-68
2022/12/09 02:26:39;;;;;;;;;24.25;21.50;;;;;2.05;78.32;100707.06;5049246;28;11605;-68
2022/12/09 02:29:38;;;;;;;;;19.25;16.75;;;;;2.01;78.57;100703.84;5056157;28;11622;-68
2022/12/09 02:32:29;;;;;;;;;21.50;17.50;;;;;1.96;78.36;100701.63;5063914;28;11537;-68
2022/12/09 02:35:07;;;;;;;;;27.50;24.25;;;;;1.98;78.10;100698.81;5041591;28;11598;-68
2022/12/09 02:38:14;;;;;;;;;32.75;23.50;;;;;1.97;78.75;100689.19;5042563;28;11711;-68
2022/12/09 02:40:57;;;;;;;;;31.50;24.50;;;;;1.98;78.40;100689.06;5030632;28;11635;-68
2022/12/09 02:43:30;;;;;;;;;30.75;24.50;;;;;2.00;78.27;100696.03;5052282;28;11551;-68
2022/12/09 02:45:59;;;;;;;;;22.00;21.00;;;;;2.00;78.27;100696.88;5044348;28;11712;-68
2022/12/09 02:48:33;;;;;;;;;25.75;20.25;;;;;2.00;78.24;100694.22;5049670;28;11547;-68
2022/12/09 02:51:06;;;;;;;;;19.50;19.00;;;;;1.99;78.47;100689.91;5048197;28;11656;-67
2022/12/09 02:53:37;;;;;;;;;19.75;18.50;;;;;1.98;78.28;100694.38;5048695;28;11559;-68
2022/12/09 02:56:06;;;;;;;;;25.00;19.00;;;;;1.96;78.49;100687.53;5044062;28;11558;-67
2022/12/09 02:58:33;;;;;;;;;26.50;21.00;;;;;1.92;78.17;100684.31;5059253;28;11669;-67
2022/12/09 03:01:00;;;;;;;;;31.50;22.75;;;;;1.90;78.39;100688.91;5055889;28;11555;-67
2022/12/09 03:03:32;;;;;;;;;25.50;18.75;;;;;1.88;78.32;100682.91;5056009;28;11637;-68
2022/12/09 03:06:07;;;;;;;;;27.25;19.25;;;;;1.87;78.35;100681.25;5049868;28;11677;-67
2022/12/09 03:08:49;;;;;;;;;25.75;23.25;;;;;1.85;78.40;100683.19;5050197;28;12222;-67
2022/12/09 03:11:19;;;;;;;;;22.50;20.00;;;;;1.83;78.18;100676.38;5065190;28;11543;-67
2022/12/09 03:14:00;;;;;;;;;28.25;24.75;;;;;1.81;78.29;100675.66;5044268;28;11568;-67
2022/12/09 03:16:40;;;;;;;;;27.75;23.25;;;;;1.79;77.86;100674.97;5042245;28;11552;-68
2022/12/09 03:19:18;;;;;;;;;27.25;22.50;;;;;1.76;78.06;100680.56;5046154;28;11556;-66
2022/12/09 03:21:47;;;;;;;;;21.75;20.25;;;;;1.73;78.23;100673.72;5052270;28;11544;-65
2022/12/09 03:24:20;;;;;;;;;37.75;29.50;;;;;1.72;78.12;100666.75;5048424;28;11571;-66
2022/12/09 03:26:48;;;;;;;;;27.50;21.75;;;;;1.69;78.55;100667.84;5052725;28;11543;-65
2022/12/09 03:29:19;;;;;;;;;32.25;26.75;;;;;1.72;78.57;100672.88;5059441;28;11579;-66
2022/12/09 03:31:48;;;;;;;;;24.75;22.00;;;;;1.72;78.04;100670.22;5063568;28;11588;-66
2022/12/09 03:34:18;;;;;;;;;29.50;23.75;;;;;1.69;77.84;100672.31;5056760;28;11649;-64
2022/12/09 03:36:47;;;;;;;;;30.75;22.25;;;;;1.69;77.99;100673.16;5061156;28;11650;-65
2022/12/09 03:39:20;;;;;;;;;24.25;21.75;;;;;1.69;78.26;100674.97;5049105;28;11574;-66
2022/12/09 03:41:51;;;;;;;;;25.25;18.50;;;;;1.67;78.28;100671.63;5051672;28;11671;-66
2022/12/09 03:44:23;;;;;;;;;25.50;24.00;;;;;1.65;78.00;100670.94;5053396;28;11692;-67
2022/12/09 03:46:50;;;;;;;;;27.00;21.50;;;;;1.63;77.88;100670.25;5055630;28;11594;-67
2022/12/09 03:49:17;;;;;;;;;26.75;23.00;;;;;1.59;77.96;100660.91;5038164;28;11714;-63
2022/12/09 03:52:06;;;;;;;;;26.25;19.25;;;;;1.57;77.90;100663.66;5042127;28;11583;-66
2022/12/09 03:54:44;;;;;;;;;27.50;19.00;;;;;1.54;78.00;100668.41;5046036;28;11690;-66
2022/12/09 03:57:14;;;;;;;;;21.50;16.75;;;;;1.49;77.98;100667.00;5040349;28;11558;-65
2022/12/09 03:59:51;;;;;;;;;20.50;17.25;;;;;1.46;78.13;100667.31;5045964;28;11642;-65
2022/12/09 04:02:19;;;;;;;;;18.00;17.00;;;;;1.44;78.23;100660.47;5055121;28;11556;-65
2022/12/09 04:04:46;;;;;;;;;19.25;19.25;;;;;1.40;77.62;100659.91;5044238;28;11559;-66
2022/12/09 04:07:13;;;;;;;;;24.50;17.50;;;;;1.36;77.75;100655.84;5057895;28;12346;-66
2022/12/09 04:09:39;;;;;;;;;24.50;17.50;;;;;1.34;78.33;100657.00;5050928;28;11708;-67
2022/12/09 04:12:07;;;;;;;;;22.75;18.75;;;;;1.31;77.82;100663.41;5046537;28;11577;-66
2022/12/09 04:14:33;;;;;;;;;17.75;16.00;;;;;1.27;77.96;100662.00;5066455;28;11685;-66
2022/12/09 04:17:01;;;;;;;;;18.75;17.25;;;;;1.27;78.30;100656.69;5047567;28;11624;-66
2022/12/09 04:19:27;;;;;;;;;23.50;15.50;;;;;1.26;78.32;100659.47;5054082;28;11641;-64
2022/12/09 04:21:54;;;;;;;;;21.25;17.00;;;;;1.24;78.56;100662.28;5045768;28;11591;-65
2022/12/09 04:24:20;;;;;;;;;24.00;16.75;;;;;1.18;78.57;100658.38;5051858;28;11638;-64
2022/12/09 04:26:47;;;;;;;;;18.75;17.25;;;;;1.14;78.70;100656.97;5063862;28;12259;-65
2022/12/09 04:29:14;;;;;;;;;19.50;18.00;;;;;1.16;78.45;100659.47;5058907;28;11735;-64
2022/12/09 04:31:40;;;;;;;;;20.50;18.25;;;;;1.15;78.85;100657.81;5055190;28;11559;-65
2022/12/09 04:34:07;;;;;;;;;19.75;18.50;;;;;1.13;78.58;100659.75;5055985;28;11535;-65
2022/12/09 04:36:36;;;;;;;;;19.75;13.00;;;;;1.08;78.21;100660.16;5052372;28;11072;-68
2022/12/09 04:39:02;;;;;;;;;21.00;17.50;;;;;1.05;78.40;100651.63;5051316;28;11688;-64
2022/12/09 04:41:29;;;;;;;;;18.00;16.25;;;;;1.03;78.47;100656.25;5060300;28;11591;-64
2022/12/09 04:43:56;;;;;;;;;25.25;20.00;;;;;1.01;78.51;100651.06;5063668;28;11551;-62
2022/12/09 04:46:23;;;;;;;;;18.50;16.00;;;;;0.97;78.55;100660.28;5052389;28;11570;-63
2022/12/09 04:48:51;;;;;;;;;19.00;18.25;;;;;0.92;78.24;100655.38;5055866;28;11549;-63
2022/12/09 04:51:18;;;;;;;;;14.50;14.50;;;;;0.88;78.81;100653.16;5059250;28;11553;-63
2022/12/09 04:53:45;;;;;;;;;21.00;18.00;;;;;0.86;78.76;100658.59;5070848;28;11644;-66
2022/12/09 04:56:20;;;;;;;;;18.25;15.50;;;;;0.81;78.48;100660.81;5045536;28;11519;-60
2022/12/09 04:58:48;;;;;;;;;16.00;14.00;;;;;0.78;78.47;100649.66;5052344;28;11586;-65
2022/12/09 05:01:18;;;;;;;;;20.75;14.00;;;;;0.78;78.35;100647.00;5058709;28;11536;-64
2022/12/09 05:03:52;;;;;;;;;16.00;13.00;;;;;0.79;78.28;100652.16;5048637;28;12184;-63
2022/12/09 05:06:20;;;;;;;;;18.25;16.00;;;;;0.82;78.57;100651.88;5052471;28;11567;-65
2022/12/09 05:08:48;;;;;;;;;16.50;14.00;;;;;0.81;78.59;100652.00;5045137;28;11536;-65
2022/12/09 05:11:17;;;;;;;;;20.50;16.25;;;;;0.81;78.34;100646.72;5053920;28;11678;-65
2022/12/09 05:13:44;;;;;;;;;13.50;13.00;;;;;0.82;78.00;100648.41;5058930;28;11543;-66
2022/12/09 05:16:13;;;;;;;;;15.50;13.00;;;;;0.79;78.04;100646.84;5055134;28;12268;-65
2022/12/09 05:18:43;;;;;;;;;15.50;11.50;;;;;0.79;78.21;100649.50;5058350;28;11575;-65
2022/12/09 05:21:15;;;;;;;;;18.00;14.75;;;;;0.79;78.12;100652.16;5046708;28;12275;-66
2022/12/09 05:23:42;;;;;;;;;16.50;9.75;;;;;0.76;77.69;100651.59;5035124;28;11554;-67
2022/12/09 05:26:12;;;;;;;;;9.50;9.00;;;;;0.74;77.87;100651.72;5032904;28;12570;-66
2022/12/09 05:28:38;;;;;;;;;14.75;14.00;;;;;0.73;78.02;100650.06;5033608;28;11557;-67
2022/12/09 05:31:09;;;;;;;;;20.25;14.50;;;;;0.69;77.73;100646.84;5037230;28;11587;-66
2022/12/09 05:33:36;;;;;;;;;12.75;12.75;;;;;0.70;77.86;100645.03;5031765;28;12352;-64
2022/12/09 05:36:07;;;;;;;;;13.50;12.00;;;;;0.70;77.73;100645.88;5050779;28;11556;-65
2022/12/09 05:38:34;;;;;;;;;9.75;7.00;;;;;0.70;78.01;100642.38;5054010;28;11512;-65
2022/12/09 05:41:00;;;;;;;;;17.50;13.75;;;;;0.70;77.81;100643.22;5056674;28;11506;-66
2022/12/09 05:43:27;;;;;;;;;11.75;11.00;;;;;0.71;77.40;100638.75;5060390;28;11581;-66
2022/12/09 05:45:54;;;;;;;;;14.00;14.00;;;;;0.71;77.71;100644.03;5049290;28;11496;-65
2022/12/09 05:48:21;;;;;;;;;13.00;12.25;;;;;0.69;77.58;100638.06;5055581;28;11618;-65
2022/12/09 05:50:59;;;;;;;;;15.50;13.25;;;;;0.68;77.55;100637.19;5046902;28;11554;-66
2022/12/09 05:53:26;;;;;;;;;17.25;12.00;;;;;0.68;77.19;100647.78;5031294;28;11546;-67
2022/12/09 05:55:53;;;;;;;;;13.25;12.00;;;;;0.68;77.20;100644.31;5045134;28;11551;-65
2022/12/09 05:58:20;;;;;;;;;18.50;15.00;;;;;0.67;77.23;100646.13;5058059;28;11562;-66
2022/12/09 06:00:47;;;;;;;;;14.25;10.00;;;;;0.68;77.40;100644.31;5044669;28;11634;-65
2022/12/09 06:03:14;;;;;;;;;15.50;14.00;;;;;0.66;77.34;100641.81;5056805;28;11533;-65
2022/12/09 06:05:42;;;;;;;;;16.00;13.50;;;;;0.64;76.99;100641.09;5051458;28;11555;-64
2022/12/09 06:08:09;;;;;;;;;21.50;14.50;;;;;0.67;77.21;100646.13;5064768;28;11537;-65
2022/12/09 06:10:40;;;;;;;;;12.00;10.00;;;;;0.68;77.25;100641.66;5051533;28;11631;-66
2022/12/09 06:13:07;;;;;;;;;15.75;12.25;;;;;0.70;76.97;100645.03;5044858;28;11571;-66
2022/12/09 06:15:34;;;;;;;;;15.75;14.00;;;;;0.69;76.98;100636.25;5052898;28;11531;-66
2022/12/09 06:18:01;;;;;;;;;11.00;11.00;;;;;0.68;77.29;100633.72;5054869;28;11522;-66
2022/12/09 06:20:28;;;;;;;;;18.50;13.25;;;;;0.67;76.92;100632.88;5051793;28;11523;-65
2022/12/09 06:22:55;;;;;;;;;15.50;13.00;;;;;0.66;77.02;100625.09;5050813;28;11138;-65
2022/12/09 06:25:22;;;;;;;;;18.50;17.00;;;;;0.64;77.22;100627.84;5045615;28;11560;-66
2022/12/09 06:27:50;;;;;;;;;16.25;14.75;;;;;0.62;76.62;100636.91;5048840;28;11633;-66
2022/12/09 06:30:17;;;;;;;;;20.25;14.50;;;;;0.62;76.92;100627.16;5050515;28;12388;-65
2022/12/09 06:32:44;;;;;;;;;19.00;13.00;;;;;0.60;76.98;100629.09;5063137;28;11577;-66
2022/12/09 06:35:11;;;;;;;;;13.50;13.00;;;;;0.57;76.82;100631.16;5058244;28;12278;-67
2022/12/09 06:37:39;;;;;;;;;23.75;21.50;;;;;0.58;76.85;100627.56;5048126;28;11556;-67
2022/12/09 06:40:06;;;;;;;;;20.25;15.00;;;;;0.59;76.79;100635.38;5045754;28;11557;-67
2022/12/09 06:42:33;;;;;;;;;19.00;15.00;;;;;0.59;77.03;100635.38;5051905;28;12309;-67
2022/12/09 06:45:00;;;;;;;;;18.25;15.00;;;;;0.61;76.91;100640.53;5058222;28;11600;-67
2022/12/09 06:47:27;;;;;;;;;16.00;16.00;;;;;0.61;76.81;100630.78;5055386;28;11606;-67
2022/12/09 06:49:56;;;;;;;;;17.00;16.25;;;;;0.64;77.09;100629.66;5050732;28;11570;-67
2022/12/09 06:52:31;;;;;;;;;14.50;13.00;;;;;0.64;76.68;100627.00;5035070;28;11577;-67
2022/12/09 06:54:58;;;;;;;;;17.00;15.50;;;;;0.62;76.60;100626.31;5052963;28;11603;-68
2022/12/09 06:57:25;;;;;;;;;18.25;14.00;;;;;0.60;76.08;100622.97;5060611;28;11541;-68
2022/12/09 06:59:52;;;;;;;;;20.25;17.50;;;;;0.58;76.53;100623.09;5051135;28;11647;-66
2022/12/09 07:02:19;;;;;;;;;17.50;15.25;;;;;0.56;76.57;100629.50;5048928;28;11583;-67
2022/12/09 07:04:46;;;;;;;;;19.00;13.00;;;;;0.57;76.42;100636.47;5041255;28;11614;-67
2022/12/09 07:07:14;;;;;;;;;21.00;18.00;;;;;0.56;76.78;100632.97;5045588;28;11592;-67
2022/12/09 07:09:41;;;;;;;;;21.25;19.00;;;;;0.58;76.48;100646.09;5049601;28;11654;-67
2022/12/09 07:12:08;;;;;;;;;22.00;18.00;;;;;0.58;76.74;100636.34;5051688;28;11693;-67
2022/12/09 07:14:35;;;;;;;;;20.00;17.50;;;;;0.57;76.72;100641.75;5053925;28;11684;-67
2022/12/09 07:17:03;;;;;;;;;21.50;18.50;;;;;0.57;76.88;100632.03;5040808;28;11562;-67
2022/12/09 07:19:30;;;;;;;;;23.00;20.00;;;;;0.57;76.50;100632.03;5042058;28;11565;-68
2022/12/09 07:21:56;;;;;;;;;20.00;18.25;;;;;0.57;76.98;100632.03;5050985;28;11542;-67
2022/12/09 07:24:24;;;;;;;;;21.75;18.00;;;;;0.58;76.44;100644.28;5048603;28;11624;-67
2022/12/09 07:26:51;;;;;;;;;22.75;18.75;;;;;0.57;76.89;100637.31;5045397;28;11558;-69
2022/12/09 07:29:18;;;;;;;;;25.00;19.00;;;;;0.62;77.21;100628.97;5055083;28;11534;-68
2022/12/09 07:31:46;;;;;;;;;23.00;18.25;;;;;0.62;76.89;100631.63;5056324;28;11553;-66
2022/12/09 07:34:13;;;;;;;;;20.25;15.25;;;;;0.59;76.36;100635.38;5056220;28;11556;-65
2022/12/09 07:36:40;;;;;;;;;27.50;26.50;;;;;0.55;76.65;100633.13;5058665;28;11629;-65
2022/12/09 07:39:11;;;;;;;;;28.50;21.50;;;;;0.64;77.51;100638.44;5050083;28;11546;-67
2022/12/09 07:41:38;;;;;;;;;29.25;28.00;;;;;0.68;77.47;100636.38;5061788;28;11537;-64
2022/12/09 07:44:05;;;;;;;;;31.00;23.25;;;;;0.67;76.95;100640.00;5041003;28;11583;-65
2022/12/09 07:46:32;;;;;;;;;25.25;22.50;;;;;0.65;76.85;100639.28;5043958;28;11560;-65
2022/12/09 07:49:01;;;;;;;;;22.00;21.50;;;;;0.62;76.64;100635.09;5049907;28;12350;-65
2022/12/09 07:51:29;;;;;;;;;21.00;21.00;;;;;0.61;76.43;100643.16;5042491;28;11542;-67
2022/12/09 07:53:56;;;;;;;;;24.00;23.25;;;;;0.59;76.88;100634.53;5050091;28;11624;-66
2022/12/09 07:56:23;;;;;;;;;20.25;19.50;;;;;0.59;76.51;100647.78;5042905;28;11568;-65
2022/12/09 07:58:52;;;;;;;;;24.50;19.25;;;;;0.59;76.70;100648.59;5043933;28;11536;-66
2022/12/09 08:01:25;;;;;;;;;18.00;15.25;;;;;0.60;76.87;100649.44;5049086;28;11836;-66
2022/12/09 08:03:52;;;;;;;;;17.50;16.25;;;;;0.62;77.09;100645.69;5032717;28;11782;-64
2022/12/09 08:06:22;;;;;;;;;27.00;21.75;;;;;0.65;76.93;100650.72;5038788;28;11609;-65
2022/12/09 08:08:50;;;;;;;;;22.00;17.75;;;;;0.67;76.43;100654.06;5043643;28;12394;-66
2022/12/09 08:11:20;;;;;;;;;26.00;21.75;;;;;0.70;76.87;100658.28;5042237;28;11574;-65
2022/12/09 08:13:48;;;;;;;;;18.25;15.25;;;;;0.73;76.43;100661.50;5042525;28;11585;-65
2022/12/09 08:16:17;;;;;;;;;23.00;19.00;;;;;0.74;76.74;100659.69;5045036;28;11659;-64
2022/12/09 08:18:44;;;;;;;;;22.25;20.25;;;;;0.74;76.80;100663.16;5042065;28;11701;-65
2022/12/09 08:21:19;;;;;;;;;19.50;15.00;;;;;0.78;76.71;100668.19;5046827;28;11588;-66
2022/12/09 08:23:47;;;;;;;;;26.00;23.75;;;;;0.79;76.35;100667.22;5038712;28;11580;-65
2022/12/09 08:26:16;;;;;;;;;28.50;25.00;;;;;0.80;76.80;100672.38;5049072;28;11579;-66
2022/12/09 08:28:43;;;;;;;;;32.50;24.00;;;;;0.80;76.41;100672.38;5048663;28;12328;-65
2022/12/09 08:31:14;;;;;;;;;24.00;18.25;;;;;0.82;76.72;100677.56;5041939;28;12405;-67
2022/12/09 08:33:42;;;;;;;;;27.75;24.00;;;;;0.83;76.84;100668.63;5042663;28;12311;-67
2022/12/09 08:36:12;;;;;;;;;21.25;19.50;;;;;0.86;76.45;100671.00;5042912;28;11575;-67
2022/12/09 08:38:39;;;;;;;;;28.25;20.75;;;;;0.86;76.49;100671.84;5046545;28;11533;-66
2022/12/09 08:41:19;;;;;;;;;22.50;21.00;;;;;0.87;76.47;100670.03;5044985;28;11607;-66
2022/12/09 08:43:47;;;;;;;;;35.25;26.50;;;;;0.86;76.44;100671.84;5051209;28;11566;-64
2022/12/09 08:46:14;;;;;;;;;22.75;22.50;;;;;0.89;76.72;100662.75;5055215;28;11655;-65
2022/12/09 08:48:41;;;;;;;;;21.25;21.25;;;;;0.92;76.66;100665.97;5050462;28;11672;-66
2022/12/09 08:51:10;;;;;;;;;23.00;12.75;;;;;0.97;76.60;100668.22;5050886;28;11590;-66
2022/12/09 08:53:38;;;;;;;;;21.25;19.50;;;;;1.02;76.82;100667.84;5038872;28;11555;-64
2022/12/09 08:56:12;;;;;;;;;24.00;20.75;;;;;1.06;76.65;100666.59;5050077;28;12291;-65
2022/12/09 08:58:41;;;;;;;;;23.75;18.25;;;;;1.10;76.70;100670.63;5051836;28;11672;-66
2022/12/09 09:01:14;;;;;;;;;20.75;16.50;;;;;1.13;76.99;100665.88;5043667;28;11573;-66
2022/12/09 09:03:42;;;;;;;;;22.75;20.00;;;;;1.14;76.71;100672.03;5053149;28;11621;-65
2022/12/09 09:06:09;;;;;;;;;22.25;19.75;;;;;1.15;76.86;100658.63;5043438;28;12245;-66
2022/12/09 09:08:38;;;;;;;;;26.50;22.00;;;;;1.16;77.15;100660.31;5044042;28;11617;-65
2022/12/09 09:11:09;;;;;;;;;30.25;24.25;;;;;1.14;77.03;100654.31;5046649;28;11562;-65
2022/12/09 09:13:38;;;;;;;;;40.00;27.75;;;;;1.12;77.03;100658.06;5052174;28;11558;-64
2022/12/09 09:16:14;;;;;;;;;39.50;32.25;;;;;1.12;77.37;100658.06;5050216;28;11584;-66
2022/12/09 09:18:42;;;;;;;;;40.00;35.25;;;;;1.11;77.91;100656.41;5050089;28;12422;-66
2022/12/09 09:21:11;;;;;;;;;38.00;30.75;;;;;1.16;77.95;100657.66;5038517;28;11756;-65
2022/12/09 09:23:40;;;;;;;;;34.50;28.00;;;;;1.18;78.21;100660.19;5047898;28;11579;-66
2022/12/09 09:26:12;;;;;;;;;32.50;27.75;;;;;1.20;78.33;100667.00;5042481;28;11709;-65
2022/12/09 09:28:39;;;;;;;;;32.75;26.00;;;;;1.23;78.43;100665.91;5052235;28;11577;-66
2022/12/09 09:31:09;;;;;;;;;45.50;31.00;;;;;1.23;78.77;100669.41;5046284;28;11576;-67
2022/12/09 09:33:36;;;;;;;;;42.25;32.75;;;;;1.25;78.77;100671.88;5045906;28;11702;-67
2022/12/09 09:36:05;;;;;;;;;34.50;30.00;;;;;1.27;78.86;100669.13;5049577;28;11661;-65
2022/12/09 09:38:36;;;;;;;;;30.25;28.00;;;;;1.28;78.86;100671.63;5048407;28;11642;-66
2022/12/09 09:41:15;;;;;;;;;27.75;24.00;;;;;1.30;78.91;100664.38;5048019;28;11567;-66
2022/12/09 09:43:42;;;;;;;;;34.50;34.00;;;;;1.30;79.02;100672.34;5049741;28;12378;-66
2022/12/09 09:46:19;;;;;;;;;44.25;34.00;;;;;1.32;78.99;100670.38;5042813;28;11719;-64
2022/12/09 09:48:47;;;;;;;;;32.50;27.75;;;;;1.33;79.10;100673.84;5051179;28;11551;-65
2022/12/09 09:51:17;;;;;;;;;29.75;27.25;;;;;1.34;79.11;100681.69;5048171;28;11591;-65
2022/12/09 09:53:49;;;;;;;;;39.50;30.50;;;;;1.34;79.06;100686.16;5046368;28;12446;-67
2022/12/09 09:56:27;;;;;;;;;35.25;25.50;;;;;1.32;79.31;100686.28;5048828;28;12341;-65
2022/12/09 09:59:16;;;;;;;;;28.00;25.75;;;;;1.30;79.06;100688.25;5044230;28;12338;-63
2022/12/09 10:02:08;;;;;;;;;29.50;26.25;;;;;1.30;79.57;100688.25;5044470;28;11560;-65
2022/12/09 10:04:52;;;;;;;;;39.25;34.25;;;;;1.29;79.48;100688.38;5018268;28;11551;-64
2022/12/09 10:07:41;;;;;;;;;36.50;31.00;;;;;1.27;79.34;100693.81;5049618;28;11542;-64
2022/12/09 10:10:30;;;;;;;;;36.50;33.00;;;;;1.25;79.52;100690.44;5035271;28;11668;-65
2022/12/09 10:13:29;;;;;;;;;33.50;28.25;;;;;1.22;79.56;100701.34;5046290;28;11572;-66
2022/12/09 10:16:11;;;;;;;;;37.25;27.00;;;;;1.23;80.11;100700.38;5049971;28;11551;-64
2022/12/09 10:18:55;;;;;;;;;32.75;29.00;;;;;1.23;80.15;100700.38;5046988;28;11572;-67
2022/12/09 10:21:27;;;;;;;;;36.50;31.50;;;;;1.20;80.33;100688.22;5036640;28;11724;-65
2022/12/09 10:23:56;;;;;;;;;32.00;26.00;;;;;1.26;80.49;100694.81;5033342;28;11599;-65
2022/12/09 10:26:30;;;;;;;;;33.50;30.00;;;;;1.29;80.25;100697.16;5056559;28;12315;-65
2022/12/09 10:29:12;;;;;;;;;39.50;37.75;;;;;1.30;80.34;100698.84;5049858;28;11635;-66
2022/12/09 10:31:39;;;;;;;;;28.25;22.50;;;;;1.32;80.75;100694.22;5044876;28;11596;-66
2022/12/09 10:34:09;;;;;;;;;40.00;35.50;;;;;1.33;79.94;100695.06;5044563;28;11578;-65
2022/12/09 10:36:37;;;;;;;;;30.25;26.75;;;;;1.33;80.61;100693.25;5042677;28;11577;-64
2022/12/09 10:39:04;;;;;;;;;34.00;30.50;;;;;1.31;80.28;100700.53;5039423;28;11579;-63
2022/12/09 10:44:29;;;;;;;;;38.75;33.25;;;;;1.30;80.34;100692.69;5032047;28;11561;-65
2022/12/09 10:47:26;;;;;;;;;35.50;32.00;;;;;1.32;80.58;100682.78;5049239;28;11626;-66
2022/12/09 10:49:54;;;;;;;;;33.00;22.50;;;;;1.39;80.73;100679.47;5039290;28;11587;-65
2022/12/09 10:52:24;;;;;;;;;37.25;30.50;;;;;1.43;80.44;100675.53;5048735;28;11534;-66
2022/12/09 10:54:51;;;;;;;;;37.75;29.25;;;;;1.48;80.62;100680.44;5040613;28;11585;-66
2022/12/09 10:57:18;;;;;;;;;44.50;31.50;;;;;1.44;80.24;100677.22;5045976;28;11576;-66
2022/12/09 10:59:58;;;;;;;;;33.25;28.25;;;;;1.44;80.40;100677.22;5047942;28;11726;-64
2022/12/09 11:02:26;;;;;;;;;42.25;39.00;;;;;1.44;80.19;100674.56;5038715;28;11575;-64
2022/12/09 11:04:53;;;;;;;;;38.00;29.75;;;;;1.45;80.54;100678.88;5047800;28;11665;-65
2022/12/09 11:07:23;;;;;;;;;42.50;38.50;;;;;1.45;80.65;100673.56;5047525;28;11590;-65
2022/12/09 11:10:05;;;;;;;;;48.75;39.50;;;;;1.42;80.34;100665.91;5043713;28;11583;-66
2022/12/09 11:12:37;;;;;;;;;42.25;36.50;;;;;1.42;80.32;100670.41;5039763;28;11560;-65
2022/12/09 11:15:28;;;;;;;;;36.50;33.50;;;;;1.41;80.61;100668.69;5038305;28;11554;-65
2022/12/09 11:18:03;;;;;;;;;38.75;31.00;;;;;1.41;80.58;100671.34;5037176;28;11602;-67
2022/12/09 11:20:33;;;;;;;;;52.00;34.00;;;;;1.43;80.90;100656.97;5037502;28;11568;-64
2022/12/09 11:23:13;;;;;;;;;47.00;41.25;;;;;1.45;81.10;100660.31;5045952;28;11596;-65
2022/12/09 11:25:54;;;;;;;;;46.50;36.50;;;;;1.53;80.64;100669.41;5042791;28;11638;-64
2022/12/09 11:28:24;;;;;;;;;42.75;34.25;;;;;1.55;80.62;100663.00;5043630;28;11577;-66
2022/12/09 11:31:06;;;;;;;;;37.50;33.25;;;;;1.56;80.76;100659.34;5044685;28;11562;-65
2022/12/09 11:33:55;;;;;;;;;47.75;39.00;;;;;1.58;81.19;100664.50;5041558;28;11575;-64
2022/12/09 11:36:47;;;;;;;;;53.25;41.00;;;;;1.59;80.48;100666.19;5039489;28;11590;-65